sensor_id;sensor_type;location;lat;lon;timestamp;P1;durP1;ratioP1;P2;durP2;ratioP2
40621;SDS011;26324;52.040;11.528;2023-08-07T00:02:31;3.95;;;1.85;;
40621;SDS011;26324;52.040;11.528;2023-08-07T00:04:58;4.30;;;1.98;;
40621;SDS011;26324;52.040;11.528;2023-08-07T00:07:26;4.63;;;1.60;;
40621;SDS011;26324;52.040;11.528;2023-08-07T00:09:53;3.17;;;1.77;;
40621;SDS011;26324;52.040;11.528;2023-08-07T00:12:20;3.58;;;2.00;;
40621;SDS011;26324;52.040;11.528;2023-08-07T00:14:49;2.80;;;1.65;;
40621;SDS011;26324;52.040;11.528;2023-08-07T00:17:17;4.05;;;1.52;;
40621;SDS011;26324;52.040;11.528;2023-08-07T00:19:44;4.05;;;1.75;;
40621;SDS011;26324;52.040;11.528;2023-08-07T00:22:12;4.93;;;1.70;;
40621;SDS011;26324;52.040;11.528;2023-08-07T00:24:39;4.40;;;1.90;;
40621;SDS011;26324;52.040;11.528;2023-08-07T00:27:06;2.35;;;1.40;;
40621;SDS011;26324;52.040;11.528;2023-08-07T00:29:36;4.22;;;1.70;;
40621;SDS011;26324;52.040;11.528;2023-08-07T00:32:04;2.80;;;1.58;;
40621;SDS011;26324;52.040;11.528;2023-08-07T00:34:32;3.38;;;1.48;;
40621;SDS011;26324;52.040;11.528;2023-08-07T00:36:59;5.80;;;2.00;;
40621;SDS011;26324;52.040;11.528;2023-08-07T00:39:27;2.78;;;1.60;;
40621;SDS011;26324;52.040;11.528;2023-08-07T00:41:54;3.13;;;1.30;;
40621;SDS011;26324;52.040;11.528;2023-08-07T00:44:22;4.78;;;1.70;;
40621;SDS011;26324;52.040;11.528;2023-08-07T00:46:50;5.10;;;1.50;;
40621;SDS011;26324;52.040;11.528;2023-08-07T00:49:18;2.15;;;1.30;;
40621;SDS011;26324;52.040;11.528;2023-08-07T00:51:47;4.65;;;1.55;;
40621;SDS011;26324;52.040;11.528;2023-08-07T00:54:15;4.28;;;1.65;;
40621;SDS011;26324;52.040;11.528;2023-08-07T00:56:45;2.60;;;1.60;;
40621;SDS011;26324;52.040;11.528;2023-08-07T00:59:13;3.83;;;1.80;;
40621;SDS011;26324;52.040;11.528;2023-08-07T01:01:42;3.03;;;1.55;;
40621;SDS011;26324;52.040;11.528;2023-08-07T01:04:09;2.88;;;1.65;;
40621;SDS011;26324;52.040;11.528;2023-08-07T01:06:37;3.08;;;1.50;;
40621;SDS011;26324;52.040;11.528;2023-08-07T01:09:04;3.40;;;1.58;;
40621;SDS011;26324;52.040;11.528;2023-08-07T01:11:36;4.22;;;1.60;;
40621;SDS011;26324;52.040;11.528;2023-08-07T01:17:22;2.42;;;1.58;;
40621;SDS011;26324;52.040;11.528;2023-08-07T01:19:50;3.08;;;1.65;;
40621;SDS011;26324;52.040;11.528;2023-08-07T01:24:47;3.78;;;1.85;;
40621;SDS011;26324;52.040;11.528;2023-08-07T01:35:53;4.63;;;2.10;;
40621;SDS011;26324;52.040;11.528;2023-08-07T01:38:25;4.57;;;1.95;;
40621;SDS011;26324;52.040;11.528;2023-08-07T01:40:54;3.58;;;1.92;;
40621;SDS011;26324;52.040;11.528;2023-08-07T01:43:24;4.13;;;2.60;;
40621;SDS011;26324;52.040;11.528;2023-08-07T01:45:52;5.18;;;2.78;;
40621;SDS011;26324;52.040;11.528;2023-08-07T01:48:19;4.88;;;2.83;;
40621;SDS011;26324;52.040;11.528;2023-08-07T01:50:46;5.45;;;2.72;;
40621;SDS011;26324;52.040;11.528;2023-08-07T01:53:14;3.85;;;2.38;;
40621;SDS011;26324;52.040;11.528;2023-08-07T01:55:41;3.50;;;2.50;;
40621;SDS011;26324;52.040;11.528;2023-08-07T01:58:08;5.15;;;2.75;;
40621;SDS011;26324;52.040;11.528;2023-08-07T02:00:36;5.75;;;2.83;;
40621;SDS011;26324;52.040;11.528;2023-08-07T02:03:03;4.63;;;2.30;;
40621;SDS011;26324;52.040;11.528;2023-08-07T02:05:30;5.82;;;2.85;;
40621;SDS011;26324;52.040;11.528;2023-08-07T02:07:58;3.22;;;2.10;;
40621;SDS011;26324;52.040;11.528;2023-08-07T02:10:25;3.70;;;2.10;;
40621;SDS011;26324;52.040;11.528;2023-08-07T02:12:53;4.55;;;2.65;;
40621;SDS011;26324;52.040;11.528;2023-08-07T02:15:20;5.68;;;2.55;;
40621;SDS011;26324;52.040;11.528;2023-08-07T02:17:50;4.45;;;2.40;;
40621;SDS011;26324;52.040;11.528;2023-08-07T02:20:18;4.30;;;2.25;;
40621;SDS011;26324;52.040;11.528;2023-08-07T02:22:45;4.60;;;2.50;;
40621;SDS011;26324;52.040;11.528;2023-08-07T02:25:12;2.72;;;1.85;;
40621;SDS011;26324;52.040;11.528;2023-08-07T02:27:40;4.63;;;2.30;;
40621;SDS011;26324;52.040;11.528;2023-08-07T02:30:07;4.22;;;2.20;;
40621;SDS011;26324;52.040;11.528;2023-08-07T02:32:35;4.57;;;2.50;;
40621;SDS011;26324;52.040;11.528;2023-08-07T02:35:02;6.63;;;2.53;;
40621;SDS011;26324;52.040;11.528;2023-08-07T02:37:30;4.22;;;2.60;;
40621;SDS011;26324;52.040;11.528;2023-08-07T02:39:59;3.75;;;2.30;;
40621;SDS011;26324;52.040;11.528;2023-08-07T02:42:26;4.25;;;2.58;;
40621;SDS011;26324;52.040;11.528;2023-08-07T02:44:53;4.13;;;2.50;;
40621;SDS011;26324;52.040;11.528;2023-08-07T02:47:21;4.93;;;2.40;;
40621;SDS011;26324;52.040;11.528;2023-08-07T02:49:48;6.90;;;2.78;;
40621;SDS011;26324;52.040;11.528;2023-08-07T02:52:15;5.13;;;2.70;;
40621;SDS011;26324;52.040;11.528;2023-08-07T02:54:43;6.63;;;3.10;;
40621;SDS011;26324;52.040;11.528;2023-08-07T02:57:10;4.50;;;3.10;;
40621;SDS011;26324;52.040;11.528;2023-08-07T02:59:37;6.97;;;2.72;;
40621;SDS011;26324;52.040;11.528;2023-08-07T03:02:05;8.98;;;2.83;;
40621;SDS011;26324;52.040;11.528;2023-08-07T03:04:32;4.88;;;3.20;;
40621;SDS011;26324;52.040;11.528;2023-08-07T03:07:00;6.13;;;2.78;;
40621;SDS011;26324;52.040;11.528;2023-08-07T03:09:27;4.30;;;2.75;;
40621;SDS011;26324;52.040;11.528;2023-08-07T03:11:55;3.53;;;2.00;;
40621;SDS011;26324;52.040;11.528;2023-08-07T03:14:22;5.57;;;2.30;;
40621;SDS011;26324;52.040;11.528;2023-08-07T03:16:49;2.97;;;1.50;;
40621;SDS011;26324;52.040;11.528;2023-08-07T03:19:17;2.85;;;1.75;;
40621;SDS011;26324;52.040;11.528;2023-08-07T03:21:48;2.90;;;1.40;;
40621;SDS011;26324;52.040;11.528;2023-08-07T03:24:16;2.28;;;1.40;;
40621;SDS011;26324;52.040;11.528;2023-08-07T03:26:43;2.83;;;1.83;;
40621;SDS011;26324;52.040;11.528;2023-08-07T03:29:12;2.70;;;1.60;;
40621;SDS011;26324;52.040;11.528;2023-08-07T03:31:40;3.00;;;1.95;;
40621;SDS011;26324;52.040;11.528;2023-08-07T03:34:07;3.25;;;2.17;;
40621;SDS011;26324;52.040;11.528;2023-08-07T03:36:34;4.88;;;1.65;;
40621;SDS011;26324;52.040;11.528;2023-08-07T03:39:02;4.30;;;1.85;;
40621;SDS011;26324;52.040;11.528;2023-08-07T03:41:30;3.38;;;1.83;;
40621;SDS011;26324;52.040;11.528;2023-08-07T03:43:57;3.97;;;2.03;;
40621;SDS011;26324;52.040;11.528;2023-08-07T03:46:24;2.10;;;1.50;;
40621;SDS011;26324;52.040;11.528;2023-08-07T03:48:55;3.28;;;1.90;;
40621;SDS011;26324;52.040;11.528;2023-08-07T03:51:24;3.28;;;1.52;;
40621;SDS011;26324;52.040;11.528;2023-08-07T03:53:53;2.85;;;1.65;;
40621;SDS011;26324;52.040;11.528;2023-08-07T03:56:21;4.30;;;1.60;;
40621;SDS011;26324;52.040;11.528;2023-08-07T03:58:48;3.75;;;1.65;;
40621;SDS011;26324;52.040;11.528;2023-08-07T04:01:19;4.15;;;1.60;;
40621;SDS011;26324;52.040;11.528;2023-08-07T04:03:47;4.50;;;1.80;;
40621;SDS011;26324;52.040;11.528;2023-08-07T04:06:15;2.65;;;1.83;;
40621;SDS011;26324;52.040;11.528;2023-08-07T04:08:46;3.63;;;1.90;;
40621;SDS011;26324;52.040;11.528;2023-08-07T04:11:14;3.05;;;1.83;;
40621;SDS011;26324;52.040;11.528;2023-08-07T04:13:42;2.92;;;1.80;;
40621;SDS011;26324;52.040;11.528;2023-08-07T04:16:10;4.70;;;2.60;;
40621;SDS011;26324;52.040;11.528;2023-08-07T04:18:37;3.53;;;2.28;;
40621;SDS011;26324;52.040;11.528;2023-08-07T04:21:05;5.65;;;3.00;;
40621;SDS011;26324;52.040;11.528;2023-08-07T04:23:32;4.75;;;2.50;;
40621;SDS011;26324;52.040;11.528;2023-08-07T04:26:00;5.55;;;2.97;;
40621;SDS011;26324;52.040;11.528;2023-08-07T04:28:28;4.15;;;2.70;;
40621;SDS011;26324;52.040;11.528;2023-08-07T04:30:56;4.63;;;2.42;;
40621;SDS011;26324;52.040;11.528;2023-08-07T04:33:24;4.90;;;2.35;;
40621;SDS011;26324;52.040;11.528;2023-08-07T04:35:51;4.22;;;2.45;;
40621;SDS011;26324;52.040;11.528;2023-08-07T04:38:19;4.40;;;3.00;;
40621;SDS011;26324;52.040;11.528;2023-08-07T04:40:47;4.28;;;2.35;;
40621;SDS011;26324;52.040;11.528;2023-08-07T04:43:16;3.60;;;2.13;;
40621;SDS011;26324;52.040;11.528;2023-08-07T04:45:44;4.68;;;2.60;;
40621;SDS011;26324;52.040;11.528;2023-08-07T04:48:14;3.97;;;2.20;;
40621;SDS011;26324;52.040;11.528;2023-08-07T04:50:42;3.60;;;2.10;;
40621;SDS011;26324;52.040;11.528;2023-08-07T04:53:10;4.97;;;2.47;;
40621;SDS011;26324;52.040;11.528;2023-08-07T04:55:38;3.03;;;2.28;;
40621;SDS011;26324;52.040;11.528;2023-08-07T04:58:05;3.80;;;2.13;;
40621;SDS011;26324;52.040;11.528;2023-08-07T05:00:33;5.00;;;2.08;;
40621;SDS011;26324;52.040;11.528;2023-08-07T05:03:00;4.22;;;2.35;;
40621;SDS011;26324;52.040;11.528;2023-08-07T05:05:29;6.15;;;2.67;;
40621;SDS011;26324;52.040;11.528;2023-08-07T05:07:57;3.67;;;1.67;;
40621;SDS011;26324;52.040;11.528;2023-08-07T05:10:25;5.10;;;2.28;;
40621;SDS011;26324;52.040;11.528;2023-08-07T05:12:52;2.85;;;1.98;;
40621;SDS011;26324;52.040;11.528;2023-08-07T05:15:22;3.47;;;1.83;;
40621;SDS011;26324;52.040;11.528;2023-08-07T05:17:51;6.32;;;1.88;;
40621;SDS011;26324;52.040;11.528;2023-08-07T05:20:19;4.13;;;2.05;;
40621;SDS011;26324;52.040;11.528;2023-08-07T05:22:46;4.40;;;2.20;;
40621;SDS011;26324;52.040;11.528;2023-08-07T05:25:14;4.85;;;2.22;;
40621;SDS011;26324;52.040;11.528;2023-08-07T05:27:43;3.55;;;2.13;;
40621;SDS011;26324;52.040;11.528;2023-08-07T05:30:11;6.97;;;2.45;;
40621;SDS011;26324;52.040;11.528;2023-08-07T05:32:39;3.75;;;1.60;;
40621;SDS011;26324;52.040;11.528;2023-08-07T05:35:07;2.05;;;1.33;;
40621;SDS011;26324;52.040;11.528;2023-08-07T05:37:35;4.53;;;2.50;;
40621;SDS011;26324;52.040;11.528;2023-08-07T05:40:05;5.10;;;1.40;;
40621;SDS011;26324;52.040;11.528;2023-08-07T05:42:33;2.58;;;1.52;;
40621;SDS011;26324;52.040;11.528;2023-08-07T05:47:31;3.30;;;1.75;;
40621;SDS011;26324;52.040;11.528;2023-08-07T05:49:59;3.13;;;1.83;;
40621;SDS011;26324;52.040;11.528;2023-08-07T05:52:26;3.20;;;1.50;;
40621;SDS011;26324;52.040;11.528;2023-08-07T05:54:54;2.38;;;1.70;;
40621;SDS011;26324;52.040;11.528;2023-08-07T05:57:21;3.53;;;1.70;;
40621;SDS011;26324;52.040;11.528;2023-08-07T05:59:48;2.55;;;1.58;;
40621;SDS011;26324;52.040;11.528;2023-08-07T06:02:16;2.75;;;1.83;;
40621;SDS011;26324;52.040;11.528;2023-08-07T06:04:43;3.20;;;1.75;;
40621;SDS011;26324;52.040;11.528;2023-08-07T06:07:12;2.70;;;1.98;;
40621;SDS011;26324;52.040;11.528;2023-08-07T06:09:39;3.30;;;1.70;;
40621;SDS011;26324;52.040;11.528;2023-08-07T06:12:06;3.10;;;2.08;;
40621;SDS011;26324;52.040;11.528;2023-08-07T06:14:34;4.18;;;1.77;;
40621;SDS011;26324;52.040;11.528;2023-08-07T06:17:01;3.45;;;2.45;;
40621;SDS011;26324;52.040;11.528;2023-08-07T06:19:29;2.88;;;1.38;;
40621;SDS011;26324;52.040;11.528;2023-08-07T06:21:59;4.22;;;1.95;;
40621;SDS011;26324;52.040;11.528;2023-08-07T06:26:55;3.08;;;1.80;;
40621;SDS011;26324;52.040;11.528;2023-08-07T06:29:22;2.33;;;1.73;;
40621;SDS011;26324;52.040;11.528;2023-08-07T06:31:49;3.45;;;2.25;;
40621;SDS011;26324;52.040;11.528;2023-08-07T06:34:17;3.22;;;1.70;;
40621;SDS011;26324;52.040;11.528;2023-08-07T06:36:44;1.65;;;1.00;;
40621;SDS011;26324;52.040;11.528;2023-08-07T06:39:12;1.98;;;1.05;;
40621;SDS011;26324;52.040;11.528;2023-08-07T06:41:39;2.17;;;1.30;;
40621;SDS011;26324;52.040;11.528;2023-08-07T06:44:08;2.42;;;1.52;;
40621;SDS011;26324;52.040;11.528;2023-08-07T06:46:35;4.40;;;2.42;;
40621;SDS011;26324;52.040;11.528;2023-08-07T06:49:02;3.05;;;1.90;;
40621;SDS011;26324;52.040;11.528;2023-08-07T06:51:29;3.35;;;1.90;;
40621;SDS011;26324;52.040;11.528;2023-08-07T06:53:57;2.97;;;2.15;;
40621;SDS011;26324;52.040;11.528;2023-08-07T06:56:24;3.90;;;2.00;;
40621;SDS011;26324;52.040;11.528;2023-08-07T06:58:51;3.05;;;1.98;;
40621;SDS011;26324;52.040;11.528;2023-08-07T07:01:19;3.70;;;2.17;;
40621;SDS011;26324;52.040;11.528;2023-08-07T07:03:46;3.17;;;2.22;;
40621;SDS011;26324;52.040;11.528;2023-08-07T07:06:19;3.30;;;1.88;;
40621;SDS011;26324;52.040;11.528;2023-08-07T07:08:47;3.13;;;2.25;;
40621;SDS011;26324;52.040;11.528;2023-08-07T07:11:15;3.50;;;2.35;;
40621;SDS011;26324;52.040;11.528;2023-08-07T07:13:42;3.83;;;2.30;;
40621;SDS011;26324;52.040;11.528;2023-08-07T07:16:09;3.40;;;2.17;;
40621;SDS011;26324;52.040;11.528;2023-08-07T07:18:39;4.05;;;2.72;;
40621;SDS011;26324;52.040;11.528;2023-08-07T07:21:07;3.90;;;2.28;;
40621;SDS011;26324;52.040;11.528;2023-08-07T07:23:34;4.35;;;2.22;;
40621;SDS011;26324;52.040;11.528;2023-08-07T07:26:02;3.60;;;1.67;;
40621;SDS011;26324;52.040;11.528;2023-08-07T07:28:31;3.83;;;2.35;;
40621;SDS011;26324;52.040;11.528;2023-08-07T07:30:58;3.25;;;2.17;;
40621;SDS011;26324;52.040;11.528;2023-08-07T07:33:26;4.60;;;1.88;;
40621;SDS011;26324;52.040;11.528;2023-08-07T07:35:54;3.70;;;1.92;;
40621;SDS011;26324;52.040;11.528;2023-08-07T07:38:22;4.38;;;1.55;;
40621;SDS011;26324;52.040;11.528;2023-08-07T07:40:49;3.28;;;1.88;;
40621;SDS011;26324;52.040;11.528;2023-08-07T07:43:17;2.03;;;1.50;;
40621;SDS011;26324;52.040;11.528;2023-08-07T07:45:44;2.42;;;1.55;;
40621;SDS011;26324;52.040;11.528;2023-08-07T07:48:11;3.47;;;2.03;;
40621;SDS011;26324;52.040;11.528;2023-08-07T07:50:38;2.42;;;1.60;;
40621;SDS011;26324;52.040;11.528;2023-08-07T07:53:06;2.10;;;1.08;;
40621;SDS011;26324;52.040;11.528;2023-08-07T07:55:33;2.80;;;1.73;;
40621;SDS011;26324;52.040;11.528;2023-08-07T07:58:01;3.22;;;2.00;;
40621;SDS011;26324;52.040;11.528;2023-08-07T08:00:28;4.13;;;1.95;;
40621;SDS011;26324;52.040;11.528;2023-08-07T08:02:55;3.67;;;2.10;;
40621;SDS011;26324;52.040;11.528;2023-08-07T08:05:23;3.05;;;1.70;;
40621;SDS011;26324;52.040;11.528;2023-08-07T08:07:50;3.13;;;1.52;;
40621;SDS011;26324;52.040;11.528;2023-08-07T08:10:18;1.75;;;1.25;;
40621;SDS011;26324;52.040;11.528;2023-08-07T08:12:45;1.98;;;0.93;;
40621;SDS011;26324;52.040;11.528;2023-08-07T08:15:12;2.70;;;1.35;;
40621;SDS011;26324;52.040;11.528;2023-08-07T08:17:40;1.70;;;1.08;;
40621;SDS011;26324;52.040;11.528;2023-08-07T08:20:07;1.73;;;0.93;;
40621;SDS011;26324;52.040;11.528;2023-08-07T08:22:35;2.80;;;1.20;;
40621;SDS011;26324;52.040;11.528;2023-08-07T08:25:03;4.00;;;1.35;;
40621;SDS011;26324;52.040;11.528;2023-08-07T08:27:33;1.67;;;1.20;;
40621;SDS011;26324;52.040;11.528;2023-08-07T08:30:01;1.52;;;0.90;;
40621;SDS011;26324;52.040;11.528;2023-08-07T08:32:29;1.55;;;0.80;;
40621;SDS011;26324;52.040;11.528;2023-08-07T08:34:56;1.13;;;0.85;;
40621;SDS011;26324;52.040;11.528;2023-08-07T08:37:24;1.35;;;0.90;;
40621;SDS011;26324;52.040;11.528;2023-08-07T08:39:52;1.60;;;0.77;;
40621;SDS011;26324;52.040;11.528;2023-08-07T08:42:19;2.72;;;1.05;;
40621;SDS011;26324;52.040;11.528;2023-08-07T08:44:51;2.13;;;0.80;;
40621;SDS011;26324;52.040;11.528;2023-08-07T08:47:25;1.67;;;1.00;;
40621;SDS011;26324;52.040;11.528;2023-08-07T08:49:54;3.15;;;1.02;;
40621;SDS011;26324;52.040;11.528;2023-08-07T08:52:29;2.20;;;1.10;;
40621;SDS011;26324;52.040;11.528;2023-08-07T08:54:58;2.88;;;1.20;;
40621;SDS011;26324;52.040;11.528;2023-08-07T08:57:27;2.45;;;1.65;;
40621;SDS011;26324;52.040;11.528;2023-08-07T09:00:02;3.83;;;1.40;;
40621;SDS011;26324;52.040;11.528;2023-08-07T09:02:33;3.08;;;1.33;;
40621;SDS011;26324;52.040;11.528;2023-08-07T09:05:01;1.77;;;1.10;;
40621;SDS011;26324;52.040;11.528;2023-08-07T09:07:29;4.85;;;1.70;;
40621;SDS011;26324;52.040;11.528;2023-08-07T09:09:57;3.53;;;1.13;;
40621;SDS011;26324;52.040;11.528;2023-08-07T09:12:27;2.22;;;1.30;;
40621;SDS011;26324;52.040;11.528;2023-08-07T09:14:58;1.10;;;0.82;;
40621;SDS011;26324;52.040;11.528;2023-08-07T09:17:28;1.40;;;1.15;;
40621;SDS011;26324;52.040;11.528;2023-08-07T09:19:58;2.28;;;1.05;;
40621;SDS011;26324;52.040;11.528;2023-08-07T09:22:26;1.52;;;0.90;;
40621;SDS011;26324;52.040;11.528;2023-08-07T09:24:54;2.13;;;0.85;;
40621;SDS011;26324;52.040;11.528;2023-08-07T09:27:23;1.00;;;0.80;;
40621;SDS011;26324;52.040;11.528;2023-08-07T09:29:51;1.88;;;0.82;;
40621;SDS011;26324;52.040;11.528;2023-08-07T09:32:21;4.05;;;0.73;;
40621;SDS011;26324;52.040;11.528;2023-08-07T09:34:51;1.10;;;0.85;;
40621;SDS011;26324;52.040;11.528;2023-08-07T09:37:21;2.63;;;0.98;;
40621;SDS011;26324;52.040;11.528;2023-08-07T09:39:49;1.30;;;0.70;;
40621;SDS011;26324;52.040;11.528;2023-08-07T09:42:18;1.92;;;1.20;;
40621;SDS011;26324;52.040;11.528;2023-08-07T09:44:45;1.50;;;1.10;;
40621;SDS011;26324;52.040;11.528;2023-08-07T09:47:14;2.58;;;1.20;;
40621;SDS011;26324;52.040;11.528;2023-08-07T09:49:42;2.30;;;1.33;;
40621;SDS011;26324;52.040;11.528;2023-08-07T09:52:11;1.55;;;1.10;;
40621;SDS011;26324;52.040;11.528;2023-08-07T09:54:42;2.38;;;1.00;;
40621;SDS011;26324;52.040;11.528;2023-08-07T09:57:09;2.53;;;1.25;;
40621;SDS011;26324;52.040;11.528;2023-08-07T09:59:37;1.23;;;1.00;;
40621;SDS011;26324;52.040;11.528;2023-08-07T10:02:04;2.20;;;1.10;;
40621;SDS011;26324;52.040;11.528;2023-08-07T10:04:33;1.48;;;0.98;;
40621;SDS011;26324;52.040;11.528;2023-08-07T10:07:01;2.08;;;1.17;;
40621;SDS011;26324;52.040;11.528;2023-08-07T10:09:29;1.85;;;1.25;;
40621;SDS011;26324;52.040;11.528;2023-08-07T10:11:58;2.13;;;1.08;;
40621;SDS011;26324;52.040;11.528;2023-08-07T10:14:26;2.75;;;1.15;;
40621;SDS011;26324;52.040;11.528;2023-08-07T10:16:53;1.40;;;0.90;;
40621;SDS011;26324;52.040;11.528;2023-08-07T10:19:22;1.42;;;0.80;;
40621;SDS011;26324;52.040;11.528;2023-08-07T10:21:49;1.83;;;1.08;;
40621;SDS011;26324;52.040;11.528;2023-08-07T10:24:18;1.77;;;1.10;;
40621;SDS011;26324;52.040;11.528;2023-08-07T10:29:15;0.50;;;0.40;;
40621;SDS011;26324;52.040;11.528;2023-08-07T10:31:46;0.70;;;0.60;;
40621;SDS011;26324;52.040;11.528;2023-08-07T10:34:15;1.45;;;0.90;;
40621;SDS011;26324;52.040;11.528;2023-08-07T10:36:42;2.03;;;0.80;;
40621;SDS011;26324;52.040;11.528;2023-08-07T10:39:11;1.77;;;0.90;;
40621;SDS011;26324;52.040;11.528;2023-08-07T10:41:45;1.88;;;0.98;;
40621;SDS011;26324;52.040;11.528;2023-08-07T10:46:51;2.58;;;1.42;;
40621;SDS011;26324;52.040;11.528;2023-08-07T10:52:02;1.50;;;0.80;;
40621;SDS011;26324;52.040;11.528;2023-08-07T10:54:40;1.52;;;1.00;;
40621;SDS011;26324;52.040;11.528;2023-08-07T10:57:13;1.13;;;0.82;;
40621;SDS011;26324;52.040;11.528;2023-08-07T10:59:49;3.22;;;1.20;;
40621;SDS011;26324;52.040;11.528;2023-08-07T11:02:25;3.63;;;1.20;;
40621;SDS011;26324;52.040;11.528;2023-08-07T11:04:55;2.90;;;1.50;;
40621;SDS011;26324;52.040;11.528;2023-08-07T11:07:24;2.03;;;1.10;;
40621;SDS011;26324;52.040;11.528;2023-08-07T11:09:56;2.17;;;0.95;;
40621;SDS011;26324;52.040;11.528;2023-08-07T11:12:27;2.72;;;1.20;;
40621;SDS011;26324;52.040;11.528;2023-08-07T11:14:55;1.77;;;1.00;;
40621;SDS011;26324;52.040;11.528;2023-08-07T11:17:26;1.98;;;0.85;;
40621;SDS011;26324;52.040;11.528;2023-08-07T11:19:55;1.38;;;0.85;;
40621;SDS011;26324;52.040;11.528;2023-08-07T11:22:23;1.02;;;0.60;;
40621;SDS011;26324;52.040;11.528;2023-08-07T11:24:51;2.15;;;0.85;;
40621;SDS011;26324;52.040;11.528;2023-08-07T11:27:20;2.25;;;0.80;;
40621;SDS011;26324;52.040;11.528;2023-08-07T11:29:48;2.30;;;1.10;;
40621;SDS011;26324;52.040;11.528;2023-08-07T11:32:16;2.58;;;1.10;;
40621;SDS011;26324;52.040;11.528;2023-08-07T11:34:48;3.08;;;0.70;;
40621;SDS011;26324;52.040;11.528;2023-08-07T11:37:17;1.98;;;1.00;;
40621;SDS011;26324;52.040;11.528;2023-08-07T11:39:44;2.40;;;0.70;;
40621;SDS011;26324;52.040;11.528;2023-08-07T11:42:16;1.17;;;0.45;;
40621;SDS011;26324;52.040;11.528;2023-08-07T11:44:43;4.25;;;1.08;;
40621;SDS011;26324;52.040;11.528;2023-08-07T11:47:12;3.95;;;1.10;;
40621;SDS011;26324;52.040;11.528;2023-08-07T11:49:39;3.05;;;1.00;;
40621;SDS011;26324;52.040;11.528;2023-08-07T11:52:07;3.60;;;1.00;;
40621;SDS011;26324;52.040;11.528;2023-08-07T11:54:34;2.78;;;0.73;;
40621;SDS011;26324;52.040;11.528;2023-08-07T11:57:02;3.28;;;1.10;;
40621;SDS011;26324;52.040;11.528;2023-08-07T11:59:30;3.13;;;0.98;;
40621;SDS011;26324;52.040;11.528;2023-08-07T12:01:58;3.78;;;1.27;;
40621;SDS011;26324;52.040;11.528;2023-08-07T12:04:30;3.00;;;0.80;;
40621;SDS011;26324;52.040;11.528;2023-08-07T12:07:02;4.55;;;1.05;;
40621;SDS011;26324;52.040;11.528;2023-08-07T12:09:29;2.40;;;0.90;;
40621;SDS011;26324;52.040;11.528;2023-08-07T12:11:57;2.72;;;1.20;;
40621;SDS011;26324;52.040;11.528;2023-08-07T12:14:29;4.10;;;1.02;;
40621;SDS011;26324;52.040;11.528;2023-08-07T12:16:57;1.50;;;0.93;;
40621;SDS011;26324;52.040;11.528;2023-08-07T12:19:35;3.08;;;0.93;;
40621;SDS011;26324;52.040;11.528;2023-08-07T12:22:05;2.65;;;0.70;;
40621;SDS011;26324;52.040;11.528;2023-08-07T12:24:35;3.30;;;0.82;;
40621;SDS011;26324;52.040;11.528;2023-08-07T12:27:04;1.85;;;1.00;;
40621;SDS011;26324;52.040;11.528;2023-08-07T12:29:32;4.30;;;0.80;;
40621;SDS011;26324;52.040;11.528;2023-08-07T12:31:59;1.65;;;0.63;;
40621;SDS011;26324;52.040;11.528;2023-08-07T12:34:28;3.13;;;1.00;;
40621;SDS011;26324;52.040;11.528;2023-08-07T12:36:58;1.23;;;0.55;;
40621;SDS011;26324;52.040;11.528;2023-08-07T12:39:26;0.98;;;0.60;;
40621;SDS011;26324;52.040;11.528;2023-08-07T12:41:56;2.00;;;0.80;;
40621;SDS011;26324;52.040;11.528;2023-08-07T12:44:27;1.38;;;0.70;;
40621;SDS011;26324;52.040;11.528;2023-08-07T12:46:55;1.40;;;0.70;;
40621;SDS011;26324;52.040;11.528;2023-08-07T12:49:23;4.10;;;1.00;;
40621;SDS011;26324;52.040;11.528;2023-08-07T12:51:50;2.60;;;0.75;;
40621;SDS011;26324;52.040;11.528;2023-08-07T12:54:19;2.47;;;0.52;;
40621;SDS011;26324;52.040;11.528;2023-08-07T12:56:47;2.85;;;0.77;;
40621;SDS011;26324;52.040;11.528;2023-08-07T12:59:14;2.65;;;0.65;;
40621;SDS011;26324;52.040;11.528;2023-08-07T13:01:41;4.40;;;0.88;;
40621;SDS011;26324;52.040;11.528;2023-08-07T13:06:45;1.83;;;0.50;;
40621;SDS011;26324;52.040;11.528;2023-08-07T13:09:13;1.92;;;0.70;;
40621;SDS011;26324;52.040;11.528;2023-08-07T13:11:41;1.70;;;0.57;;
40621;SDS011;26324;52.040;11.528;2023-08-07T13:14:08;2.88;;;0.70;;
40621;SDS011;26324;52.040;11.528;2023-08-07T13:16:35;0.90;;;0.40;;
40621;SDS011;26324;52.040;11.528;2023-08-07T13:19:03;2.85;;;0.50;;
40621;SDS011;26324;52.040;11.528;2023-08-07T13:23:58;4.55;;;0.90;;
40621;SDS011;26324;52.040;11.528;2023-08-07T13:26:26;1.65;;;0.50;;
40621;SDS011;26324;52.040;11.528;2023-08-07T13:28:53;1.73;;;0.60;;
40621;SDS011;26324;52.040;11.528;2023-08-07T13:31:21;2.03;;;0.60;;
40621;SDS011;26324;52.040;11.528;2023-08-07T13:33:48;3.53;;;1.02;;
40621;SDS011;26324;52.040;11.528;2023-08-07T13:36:15;1.85;;;0.90;;
40621;SDS011;26324;52.040;11.528;2023-08-07T13:38:43;1.15;;;0.43;;
40621;SDS011;26324;52.040;11.528;2023-08-07T13:41:13;2.45;;;0.50;;
40621;SDS011;26324;52.040;11.528;2023-08-07T13:43:40;3.60;;;0.77;;
40621;SDS011;26324;52.040;11.528;2023-08-07T13:46:08;1.75;;;0.60;;
40621;SDS011;26324;52.040;11.528;2023-08-07T13:48:35;1.20;;;0.28;;
40621;SDS011;26324;52.040;11.528;2023-08-07T13:51:03;2.67;;;0.90;;
40621;SDS011;26324;52.040;11.528;2023-08-07T13:53:33;2.75;;;0.70;;
40621;SDS011;26324;52.040;11.528;2023-08-07T13:56:01;1.15;;;0.50;;
40621;SDS011;26324;52.040;11.528;2023-08-07T13:58:28;0.85;;;0.47;;
40621;SDS011;26324;52.040;11.528;2023-08-07T14:00:56;2.97;;;0.70;;
40621;SDS011;26324;52.040;11.528;2023-08-07T14:03:24;1.92;;;0.50;;
40621;SDS011;26324;52.040;11.528;2023-08-07T14:05:52;1.98;;;0.55;;
40621;SDS011;26324;52.040;11.528;2023-08-07T14:08:19;0.65;;;0.20;;
40621;SDS011;26324;52.040;11.528;2023-08-07T14:10:47;0.93;;;0.32;;
40621;SDS011;26324;52.040;11.528;2023-08-07T14:13:15;0.98;;;0.32;;
40621;SDS011;26324;52.040;11.528;2023-08-07T14:15:43;4.57;;;0.40;;
40621;SDS011;26324;52.040;11.528;2023-08-07T14:18:10;0.88;;;0.38;;
40621;SDS011;26324;52.040;11.528;2023-08-07T14:20:40;1.40;;;0.40;;
40621;SDS011;26324;52.040;11.528;2023-08-07T14:23:27;2.83;;;0.50;;
40621;SDS011;26324;52.040;11.528;2023-08-07T14:25:58;2.53;;;0.50;;
40621;SDS011;26324;52.040;11.528;2023-08-07T14:28:25;0.90;;;0.40;;
40621;SDS011;26324;52.040;11.528;2023-08-07T14:30:58;5.13;;;0.80;;
40621;SDS011;26324;52.040;11.528;2023-08-07T14:33:27;0.95;;;0.40;;
40621;SDS011;26324;52.040;11.528;2023-08-07T14:35:55;3.67;;;0.52;;
40621;SDS011;26324;52.040;11.528;2023-08-07T14:38:22;1.58;;;0.73;;
40621;SDS011;26324;52.040;11.528;2023-08-07T14:40:50;2.83;;;0.70;;
40621;SDS011;26324;52.040;11.528;2023-08-07T14:43:17;2.95;;;0.70;;
40621;SDS011;26324;52.040;11.528;2023-08-07T14:45:45;2.05;;;0.50;;
40621;SDS011;26324;52.040;11.528;2023-08-07T14:48:13;3.47;;;0.90;;
40621;SDS011;26324;52.040;11.528;2023-08-07T14:50:41;2.17;;;0.50;;
40621;SDS011;26324;52.040;11.528;2023-08-07T14:53:10;1.40;;;0.68;;
40621;SDS011;26324;52.040;11.528;2023-08-07T14:58:06;2.80;;;0.75;;
40621;SDS011;26324;52.040;11.528;2023-08-07T15:00:34;2.20;;;0.73;;
40621;SDS011;26324;52.040;11.528;2023-08-07T15:03:02;3.92;;;0.65;;
40621;SDS011;26324;52.040;11.528;2023-08-07T15:05:30;6.65;;;0.90;;
40621;SDS011;26324;52.040;11.528;2023-08-07T15:07:59;2.33;;;1.42;;
40621;SDS011;26324;52.040;11.528;2023-08-07T15:10:28;2.83;;;0.95;;
40621;SDS011;26324;52.040;11.528;2023-08-07T15:12:56;2.58;;;0.57;;
40621;SDS011;26324;52.040;11.528;2023-08-07T15:15:24;2.38;;;0.65;;